Cerejeira, Brazil
Current Conditions -  °F | °C
As of 7:00 AM on Monday 26 Jan 2015 (Local Time) from SBVH Reporting Station
Haze Haze  
Wind Chill: 21°   Ceiling: 500
Heat Index: 21°   Visibility: 3mi
Dew Point: 21°   Wind: 10mph
Humidity: 100%   Direction: 340°NNW
Pressure: 29.97"   Gusts: NA
Location:  13.19°S, 60.81°W
Report Text: SBVH 261100Z 34009KT 5000 BR BKN005 BKN008 21/21 Q1015
Loading
Personal Weather Stations






























Interactive Weather Map New forecast layout! Learn more

10-Day Weather Forecast

Advertisements
Track Severe Weather on mobile